Time,TemperatureF,DewpointF,PressureIn,WindDirection,WindDirectionDegrees,WindSpeedMPH,WindSpeedGustMPH,Humidity,HourlyPrecipIn,Conditions,Clouds,dailyrainin,SolarRadiationWatts/m^2,SoftwareType,DateUTC
2013-07-29 00:04:00,63.7,59.0,30.05,ESE,114,2.0,-999.0,83,-99.99,,,0.00,0,weatherlink.com 1.10,2013-07-29 05:04:00,
2013-07-29 00:19:00,63.6,59.0,30.05,ESE,121,4.0,-999.0,84,-99.99,,,0.00,0,weatherlink.com 1.10,2013-07-29 05:19:00,
2013-07-29 00:34:00,63.1,59.0,30.05,ESE,119,2.0,-999.0,85,-99.99,,,0.00,0,weatherlink.com 1.10,2013-07-29 05:34:00,
2013-07-29 00:49:00,62.7,58.0,30.05,SE,135,2.0,-999.0,84,-99.99,,,0.00,0,weatherlink.com 1.10,2013-07-29 05:49:00,
2013-07-29 01:04:00,62.5,58.0,30.05,SE,128,4.0,-999.0,85,-99.99,,,0.00,0,weatherlink.com 1.10,2013-07-29 06:04:00,
2013-07-29 01:19:00,62.5,58.0,30.05,ESE,123,2.0,-999.0,85,-99.99,,,0.00,0,weatherlink.com 1.10,2013-07-29 06:19:00,
2013-07-29 01:34:00,62.5,58.0,30.05,SE,144,4.0,-999.0,86,-99.99,,,0.00,0,weatherlink.com 1.10,2013-07-29 06:34:00,
2013-07-29 01:49:00,62.4,58.0,30.05,SE,133,2.0,-999.0,86,-99.99,,,0.00,0,weatherlink.com 1.10,2013-07-29 06:49:00,
2013-07-29 02:06:00,62.2,58.0,30.04,SSE,148,4.0,-999.0,85,-99.99,,,0.00,0,weatherlink.com 1.10,2013-07-29 07:06:00,
2013-07-29 02:19:00,62.2,57.0,30.04,SE,138,4.0,-999.0,84,-99.99,,,0.00,0,weatherlink.com 1.10,2013-07-29 07:19:00,
2013-07-29 02:34:00,62.2,57.0,30.03,SE,146,7.0,-999.0,84,-99.99,,,0.00,0,weatherlink.com 1.10,2013-07-29 07:34:00,
2013-07-29 02:49:00,62.1,57.0,30.03,SSE,149,6.0,-999.0,84,-99.99,,,0.00,0,weatherlink.com 1.10,2013-07-29 07:49:00,
2013-07-29 03:04:00,61.9,57.0,30.02,SE,140,5.0,-999.0,85,-99.99,,,0.00,0,weatherlink.com 1.10,2013-07-29 08:04:00,
2013-07-29 03:20:00,61.5,57.0,30.03,ESE,113,4.0,-999.0,86,-99.99,,,0.00,0,weatherlink.com 1.10,2013-07-29 08:20:00,
2013-07-29 03:35:00,61.1,57.0,30.02,SE,134,4.0,-999.0,87,-99.99,,,0.00,0,weatherlink.com 1.10,2013-07-29 08:35:00,
2013-07-29 03:50:00,61.1,57.0,30.02,SE,142,6.0,-999.0,87,-99.99,,,0.00,0,weatherlink.com 1.10,2013-07-29 08:50:00,
2013-07-29 04:05:00,61.2,58.0,30.03,SSE,154,4.0,-999.0,88,-99.99,,,0.00,0,weatherlink.com 1.10,2013-07-29 09:05:00,
2013-07-29 04:20:00,61.3,58.0,30.03,SE,141,4.0,-999.0,88,-99.99,,,0.00,0,weatherlink.com 1.10,2013-07-29 09:20:00,
2013-07-29 04:35:00,61.3,58.0,30.04,SE,132,2.0,-999.0,89,-99.99,,,0.00,0,weatherlink.com 1.10,2013-07-29 09:35:00,
2013-07-29 04:50:00,61.3,58.0,30.03,SE,128,5.0,-999.0,90,-99.99,,,0.03,0,weatherlink.com 1.10,2013-07-29 09:50:00,
2013-07-29 05:20:00,60.5,58.0,30.03,SE,136,4.0,-999.0,92,-99.99,,,0.10,0,weatherlink.com 1.10,2013-07-29 10:20:00,
2013-07-29 05:35:00,60.1,58.0,30.02,ESE,115,6.0,-999.0,93,-99.99,,,0.18,0,weatherlink.com 1.10,2013-07-29 10:35:00,
2013-07-29 05:50:00,60.1,58.0,30.02,ESE,122,7.0,-999.0,93,-99.99,,,0.20,0,weatherlink.com 1.10,2013-07-29 10:50:00,
2013-07-29 06:05:00,60.2,59.0,30.02,ESE,123,6.0,-999.0,94,-99.99,,,0.23,0,weatherlink.com 1.10,2013-07-29 11:05:00,
2013-07-29 06:20:00,60.3,59.0,30.02,SE,128,5.0,-999.0,94,-99.99,,,0.24,0,weatherlink.com 1.10,2013-07-29 11:20:00,
2013-07-29 06:35:00,60.4,59.0,30.02,ESE,121,5.0,-999.0,95,-99.99,,,0.25,0,weatherlink.com 1.10,2013-07-29 11:35:00,
2013-07-29 06:50:00,60.6,59.0,30.01,ESE,112,6.0,-999.0,95,-99.99,,,0.25,0,weatherlink.com 1.10,2013-07-29 11:50:00,
2013-07-29 07:05:00,60.8,59.0,30.00,ESE,118,9.0,-999.0,95,-99.99,,,0.25,11,weatherlink.com 1.10,2013-07-29 12:05:00,
2013-07-29 07:20:00,60.9,60.0,30.00,ESE,116,11.0,-999.0,95,-99.99,,,0.26,11,weatherlink.com 1.10,2013-07-29 12:20:00,
2013-07-29 07:35:00,61.0,60.0,30.00,ESE,121,8.0,-999.0,95,-99.99,,,0.28,7,weatherlink.com 1.10,2013-07-29 12:35:00,
2013-07-29 07:50:00,61.2,60.0,30.00,SE,126,11.0,-999.0,96,-99.99,,,0.28,18,weatherlink.com 1.10,2013-07-29 12:50:00,
2013-07-29 08:20:00,61.2,60.0,30.02,South,172,1.0,-999.0,96,-99.99,,,0.34,7,weatherlink.com 1.10,2013-07-29 13:20:00,
2013-07-29 08:35:00,61.4,60.0,30.02,ESE,123,5.0,-999.0,96,-99.99,,,0.35,11,weatherlink.com 1.10,2013-07-29 13:35:00,
2013-07-29 08:50:00,61.5,60.0,30.02,SE,136,6.0,-999.0,96,-99.99,,,0.37,25,weatherlink.com 1.10,2013-07-29 13:50:00,
2013-07-29 09:05:00,61.7,61.0,30.02,ESE,115,8.0,-999.0,96,-99.99,,,0.38,39,weatherlink.com 1.10,2013-07-29 14:05:00,
2013-07-29 09:20:00,61.7,61.0,30.02,ESE,117,7.0,-999.0,96,-99.99,,,0.39,25,weatherlink.com 1.10,2013-07-29 14:20:00,
2013-07-29 09:35:00,61.8,61.0,30.02,ESE,116,5.0,-999.0,96,-99.99,,,0.39,19,weatherlink.com 1.10,2013-07-29 14:35:00,
2013-07-29 09:50:00,62.2,61.0,30.02,ESE,117,5.0,-999.0,96,-99.99,,,0.39,44,weatherlink.com 1.10,2013-07-29 14:50:00,
2013-07-29 10:20:00,62.1,61.0,30.02,SE,128,7.0,-999.0,96,-99.99,,,0.40,70,weatherlink.com 1.10,2013-07-29 15:20:00,
2013-07-29 10:50:00,62.2,61.0,30.01,SE,128,12.0,-999.0,96,-99.99,,,0.40,167,weatherlink.com 1.10,2013-07-29 15:50:00,
2013-07-29 11:05:00,62.1,61.0,30.01,SE,134,9.0,-999.0,96,-99.99,,,0.40,135,weatherlink.com 1.10,2013-07-29 16:05:00,
2013-07-29 11:20:00,62.0,61.0,30.02,SE,130,12.0,-999.0,96,-99.99,,,0.40,113,weatherlink.com 1.10,2013-07-29 16:20:00,
2013-07-29 11:35:00,61.9,61.0,30.01,SE,140,6.0,-999.0,96,-99.99,,,0.41,178,weatherlink.com 1.10,2013-07-29 16:35:00,
2013-07-29 11:51:00,62.3,61.0,30.01,SE,127,12.0,-999.0,96,-99.99,,,0.41,236,weatherlink.com 1.10,2013-07-29 16:51:00,
2013-07-29 12:21:00,62.1,61.0,30.00,SE,130,12.0,-999.0,96,-99.99,,,0.41,97,weatherlink.com 1.10,2013-07-29 17:21:00,
2013-07-29 12:36:00,62.3,61.0,30.01,SE,133,9.0,-999.0,96,-99.99,,,0.41,132,weatherlink.com 1.10,2013-07-29 17:36:00,
2013-07-29 12:51:00,62.6,62.0,30.00,SE,133,8.0,-999.0,96,-99.99,,,0.41,146,weatherlink.com 1.10,2013-07-29 17:51:00,
2013-07-29 13:06:00,62.9,62.0,30.00,SE,134,8.0,-999.0,96,-99.99,,,0.41,139,weatherlink.com 1.10,2013-07-29 18:06:00,
2013-07-29 13:21:00,62.9,62.0,30.00,SE,137,9.0,-999.0,96,-99.99,,,0.41,90,weatherlink.com 1.10,2013-07-29 18:21:00,
2013-07-29 13:36:00,63.1,62.0,30.00,SE,141,11.0,-999.0,96,-99.99,,,0.41,105,weatherlink.com 1.10,2013-07-29 18:36:00,
2013-07-29 13:51:00,63.1,62.0,30.00,SE,126,9.0,-999.0,96,-99.99,,,0.41,116,weatherlink.com 1.10,2013-07-29 18:51:00,
2013-07-29 14:06:00,63.3,62.0,30.01,SE,137,8.0,-999.0,96,-99.99,,,0.41,88,weatherlink.com 1.10,2013-07-29 19:06:00,
2013-07-29 14:21:00,63.2,62.0,30.01,SSE,150,10.0,-999.0,96,-99.99,,,0.41,74,weatherlink.com 1.10,2013-07-29 19:21:00,
2013-07-29 14:36:00,63.2,62.0,30.01,SE,140,7.0,-999.0,96,-99.99,,,0.41,77,weatherlink.com 1.10,2013-07-29 19:36:00,
2013-07-29 14:51:00,63.4,62.0,30.01,SE,132,8.0,-999.0,96,-99.99,,,0.41,47,weatherlink.com 1.10,2013-07-29 19:51:00,
2013-07-29 15:36:00,63.6,63.0,30.01,SE,134,6.0,-999.0,96,-99.99,,,0.41,53,weatherlink.com 1.10,2013-07-29 20:36:00,
2013-07-29 15:51:00,63.7,63.0,30.01,ESE,118,7.0,-999.0,96,-99.99,,,0.41,65,weatherlink.com 1.10,2013-07-29 20:51:00,
2013-07-29 16:06:00,64.0,63.0,30.01,SE,128,6.0,-999.0,96,-99.99,,,0.41,98,weatherlink.com 1.10,2013-07-29 21:06:00,
2013-07-29 16:21:00,64.2,63.0,30.00,SE,131,9.0,-999.0,96,-99.99,,,0.41,98,weatherlink.com 1.10,2013-07-29 21:21:00,
2013-07-29 16:36:00,64.4,63.0,30.00,SE,135,9.0,-999.0,96,-99.99,,,0.41,188,weatherlink.com 1.10,2013-07-29 21:36:00,
2013-07-29 17:06:00,64.8,64.0,30.00,ESE,123,8.0,-999.0,96,-99.99,,,0.41,155,weatherlink.com 1.10,2013-07-29 22:06:00,
2013-07-29 17:21:00,64.9,64.0,29.99,ESE,123,9.0,-999.0,96,-99.99,,,0.41,134,weatherlink.com 1.10,2013-07-29 22:21:00,
2013-07-29 17:51:00,65.5,64.0,29.99,ESE,115,7.0,-999.0,96,-99.99,,,0.41,134,weatherlink.com 1.10,2013-07-29 22:51:00,
2013-07-29 18:06:00,65.7,65.0,30.00,ESE,115,8.0,-999.0,96,-99.99,,,0.41,88,weatherlink.com 1.10,2013-07-29 23:06:00,
2013-07-29 18:21:00,65.8,64.0,30.00,East,95,6.0,-999.0,95,-99.99,,,0.41,70,weatherlink.com 1.10,2013-07-29 23:21:00,
2013-07-29 18:36:00,65.6,64.0,29.99,East,95,6.0,-999.0,95,-99.99,,,0.41,46,weatherlink.com 1.10,2013-07-29 23:36:00,
2013-07-29 19:06:00,65.5,64.0,30.00,ESE,110,9.0,-999.0,95,-99.99,,,0.41,37,weatherlink.com 1.10,2013-07-30 00:06:00,
2013-07-29 19:21:00,65.4,64.0,30.00,ESE,113,6.0,-999.0,95,-99.99,,,0.41,26,weatherlink.com 1.10,2013-07-30 00:21:00,
2013-07-29 19:51:00,65.1,64.0,30.00,ESE,120,12.0,-999.0,95,-99.99,,,0.41,14,weatherlink.com 1.10,2013-07-30 00:51:00,
2013-07-29 20:07:00,65.1,64.0,30.01,SE,130,9.0,-999.0,95,-99.99,,,0.41,11,weatherlink.com 1.10,2013-07-30 01:07:00,
2013-07-29 20:21:00,65.0,64.0,30.01,SE,128,6.0,-999.0,95,-99.99,,,0.41,9,weatherlink.com 1.10,2013-07-30 01:21:00,
2013-07-29 20:36:00,65.0,64.0,30.01,SE,124,6.0,-999.0,95,-99.99,,,0.41,0,weatherlink.com 1.10,2013-07-30 01:36:00,
2013-07-29 20:51:00,65.0,64.0,30.02,ESE,111,7.0,-999.0,95,-99.99,,,0.41,0,weatherlink.com 1.10,2013-07-30 01:51:00,
2013-07-29 21:21:00,65.0,64.0,30.02,ESE,112,4.0,-999.0,96,-99.99,,,0.41,0,weatherlink.com 1.10,2013-07-30 02:21:00,
2013-07-29 21:51:00,64.9,64.0,30.04,East,90,4.0,-999.0,96,-99.99,,,0.41,0,weatherlink.com 1.10,2013-07-30 02:51:00,
2013-07-29 22:21:00,64.9,64.0,30.05,East,82,3.0,-999.0,96,-99.99,,,0.41,0,weatherlink.com 1.10,2013-07-30 03:21:00,
2013-07-29 22:36:00,65.0,64.0,30.04,ESE,107,6.0,-999.0,96,-99.99,,,0.41,0,weatherlink.com 1.10,2013-07-30 03:36:00,
2013-07-29 22:50:00,64.9,64.0,30.05,ESE,109,5.0,-999.0,96,-99.99,,,0.00,0,weatherlink.com 1.10,2013-07-30 03:50:00,
2013-07-29 23:03:00,64.8,64.0,30.04,East,95,6.0,-999.0,96,-99.99,,,0.00,0,weatherlink.com 1.10,2013-07-30 04:03:00,
2013-07-29 23:18:00,64.8,64.0,30.04,East,84,2.0,-999.0,96,-99.99,,,0.00,0,weatherlink.com 1.10,2013-07-30 04:18:00,
2013-07-29 23:33:00,64.8,64.0,30.04,ENE,71,3.0,-999.0,96,-99.99,,,0.00,0,weatherlink.com 1.10,2013-07-30 04:33:00,
2013-07-29 23:48:00,64.8,64.0,30.04,ENE,64,3.0,-999.0,96,-99.99,,,0.00,0,weatherlink.com 1.10,2013-07-30 04:48:00,